Terminal Aerodrome Forecast
Issued by NWS

Home | Current Version | Previous Version | Text Only | Print | Product List | Glossary On
Versions: 1 2 3 4 5 6 7 8 9 10 11 12 13 14 15 16 17 18 19
000
FTUS43 KMQT 301700
TAFCMX
TAF
KCMX 301720Z 3018/3118 02007KT P6SM -DZ OVC005
     FM301900 02007KT P6SM OVC010
     FM310000 35003KT P6SM OVC020
     FM310700 VRB03KT 2SM BR SCT002
     FM310900 07004KT 1/4SM FG VV002
      TEMPO 3113/3114 2SM BR SCT003
     FM311400 09006KT P6SM SCT070=

USA.gov is the U.S. government's official web portal to all federal, state and local government web resources and services.